createdAt,value
2018-12-12T00:02:15.620Z,99.90
2018-12-12T00:04:44.058Z,99.90
2018-12-12T00:07:12.650Z,99.90
2018-12-12T00:09:41.022Z,99.90
2018-12-12T00:12:09.392Z,99.90
2018-12-12T00:14:37.728Z,99.90
2018-12-12T00:17:06.123Z,99.90
2018-12-12T00:19:34.503Z,99.90
2018-12-12T00:22:02.870Z,99.90
2018-12-12T00:24:31.263Z,99.90
2018-12-12T00:26:59.679Z,99.90
2018-12-12T00:29:28.063Z,99.90
2018-12-12T00:31:56.541Z,99.90
2018-12-12T00:34:24.849Z,99.90
2018-12-12T00:36:57.598Z,99.90
2018-12-12T00:39:25.938Z,99.90
2018-12-12T00:41:54.492Z,99.90
2018-12-12T00:44:22.819Z,99.90
2018-12-12T00:46:51.969Z,99.90
2018-12-12T00:49:20.417Z,99.90
2018-12-12T00:51:49.127Z,99.90
2018-12-12T00:54:17.621Z,99.90
2018-12-12T00:56:45.995Z,99.90
2018-12-12T00:59:14.327Z,99.90
2018-12-12T01:01:42.690Z,99.90
2018-12-12T01:04:11.072Z,99.90
2018-12-12T01:06:39.504Z,99.90
2018-12-12T01:09:08.237Z,99.90
2018-12-12T01:11:41.882Z,99.90
2018-12-12T01:14:10.229Z,99.90
2018-12-12T01:16:38.698Z,99.90
2018-12-12T01:19:07.072Z,99.90
2018-12-12T01:21:36.008Z,99.90
2018-12-12T01:24:04.460Z,99.90
2018-12-12T01:26:32.824Z,99.90
2018-12-12T01:29:01.395Z,99.90
2018-12-12T01:31:29.754Z,99.90
2018-12-12T01:33:58.150Z,99.90
2018-12-12T01:36:26.583Z,99.90
2018-12-12T01:38:54.927Z,99.90
2018-12-12T01:41:23.330Z,99.90
2018-12-12T01:43:51.812Z,99.90
2018-12-12T01:46:20.266Z,99.90
2018-12-12T01:48:48.617Z,99.90
2018-12-12T01:51:17.022Z,99.90
2018-12-12T01:53:47.392Z,99.90
2018-12-12T01:56:15.869Z,99.90
2018-12-12T01:58:44.255Z,99.90
2018-12-12T02:01:12.832Z,99.90
2018-12-12T02:03:41.223Z,99.90
2018-12-12T02:06:09.629Z,99.90
2018-12-12T02:08:37.992Z,99.90
2018-12-12T02:11:06.408Z,99.90
2018-12-12T02:13:35.807Z,99.90
2018-12-12T02:16:06.147Z,99.90
2018-12-12T02:18:35.920Z,99.90
2018-12-12T02:21:04.310Z,99.90
2018-12-12T02:23:32.692Z,99.90
2018-12-12T02:26:01.067Z,99.90
2018-12-12T02:28:29.475Z,99.90
2018-12-12T02:30:57.893Z,99.90
2018-12-12T02:33:26.394Z,99.90
2018-12-12T02:35:54.840Z,99.90
2018-12-12T02:38:23.325Z,99.90
2018-12-12T02:40:51.674Z,99.90
2018-12-12T02:43:20.080Z,99.90
2018-12-12T02:45:49.088Z,99.90
2018-12-12T02:48:17.548Z,99.90
2018-12-12T02:50:45.901Z,99.90
2018-12-12T02:53:14.280Z,99.90
2018-12-12T02:55:42.599Z,99.90
2018-12-12T02:58:11.007Z,99.90
2018-12-12T03:00:39.356Z,99.90
2018-12-12T03:03:07.813Z,99.90
2018-12-12T03:05:36.206Z,99.90
2018-12-12T03:08:04.689Z,99.90
2018-12-12T03:10:33.175Z,99.90
2018-12-12T03:13:01.536Z,99.90
2018-12-12T03:15:30.541Z,99.90
2018-12-12T03:17:58.946Z,99.90
2018-12-12T03:20:27.364Z,99.90
2018-12-12T03:22:55.741Z,99.90
2018-12-12T03:25:24.273Z,99.90
2018-12-12T03:27:52.735Z,99.90
2018-12-12T03:30:21.120Z,99.90
2018-12-12T03:32:49.616Z,99.90
2018-12-12T03:35:18.585Z,99.90
2018-12-12T03:37:47.063Z,99.90
2018-12-12T03:40:16.652Z,99.90
2018-12-12T03:42:45.440Z,99.90
2018-12-12T03:45:13.948Z,99.90
2018-12-12T03:47:42.313Z,99.90
2018-12-12T03:50:10.703Z,99.90
2018-12-12T03:52:39.168Z,99.90
2018-12-12T03:55:07.743Z,99.90
2018-12-12T03:57:36.111Z,99.90
2018-12-12T04:00:05.296Z,99.90
2018-12-12T04:02:33.653Z,99.90
2018-12-12T04:05:01.957Z,99.90
2018-12-12T04:07:30.324Z,99.90
2018-12-12T04:09:58.707Z,99.90
2018-12-12T04:12:27.121Z,99.90
2018-12-12T04:14:55.543Z,99.90
2018-12-12T04:17:23.884Z,99.90
2018-12-12T04:19:52.340Z,99.90
2018-12-12T04:22:21.117Z,99.90
2018-12-12T04:24:49.780Z,99.90
2018-12-12T04:27:18.202Z,99.90
2018-12-12T04:29:47.069Z,99.90
2018-12-12T04:32:15.416Z,99.90
2018-12-12T04:34:43.858Z,99.90
2018-12-12T04:37:12.303Z,99.90
2018-12-12T04:39:40.651Z,99.90
2018-12-12T04:42:09.104Z,99.90
2018-12-12T04:44:37.493Z,99.90
2018-12-12T04:47:05.820Z,99.90
2018-12-12T04:49:34.221Z,99.90
2018-12-12T04:52:02.580Z,99.90
2018-12-12T04:54:30.941Z,99.90
2018-12-12T04:56:59.345Z,99.90
2018-12-12T04:59:27.822Z,99.90
2018-12-12T05:01:56.284Z,99.90
2018-12-12T05:04:24.672Z,99.90
2018-12-12T05:06:53.147Z,99.90
2018-12-12T05:09:21.655Z,99.90
2018-12-12T05:11:50.020Z,99.90
2018-12-12T05:14:18.369Z,99.90
2018-12-12T05:16:46.706Z,99.90
2018-12-12T05:19:15.090Z,99.90
2018-12-12T05:21:43.582Z,99.90
2018-12-12T05:24:11.914Z,99.90
2018-12-12T05:26:40.291Z,99.90
2018-12-12T05:29:08.729Z,99.90
2018-12-12T05:31:37.145Z,99.90
2018-12-12T05:34:05.485Z,99.90
2018-12-12T05:36:33.883Z,99.90
2018-12-12T05:39:02.265Z,99.90
2018-12-12T05:41:30.626Z,99.90
2018-12-12T05:43:59.052Z,99.90
2018-12-12T05:46:27.419Z,99.90
2018-12-12T05:48:55.777Z,99.90
2018-12-12T05:51:24.150Z,99.90
2018-12-12T05:53:52.598Z,99.90
2018-12-12T05:56:21.244Z,99.90
2018-12-12T05:58:49.875Z,99.90
2018-12-12T06:01:18.552Z,99.90
2018-12-12T06:03:47.289Z,99.90
2018-12-12T06:06:15.911Z,99.90
2018-12-12T06:08:44.554Z,99.90
2018-12-12T06:11:13.165Z,99.90
2018-12-12T06:13:41.617Z,99.90
2018-12-12T06:16:09.957Z,99.90
2018-12-12T06:18:38.552Z,99.90
2018-12-12T06:21:07.056Z,99.90
2018-12-12T06:23:35.387Z,99.90
2018-12-12T06:26:03.835Z,99.90
2018-12-12T06:28:32.204Z,99.90
2018-12-12T06:31:00.539Z,99.90
2018-12-12T06:33:28.945Z,99.90
2018-12-12T06:35:57.296Z,99.90
2018-12-12T06:38:25.639Z,99.90
2018-12-12T06:40:54.463Z,99.90
2018-12-12T06:43:22.944Z,99.90
2018-12-12T06:45:51.292Z,99.90
2018-12-12T06:48:19.679Z,99.90
2018-12-12T06:50:48.123Z,99.90
2018-12-12T06:53:16.631Z,99.90
2018-12-12T06:55:45.113Z,99.90
2018-12-12T06:58:13.460Z,99.90
2018-12-12T07:00:41.847Z,99.90
2018-12-12T07:03:10.204Z,99.90
2018-12-12T07:05:38.581Z,99.90
2018-12-12T07:08:07.066Z,99.90
2018-12-12T07:10:35.441Z,99.90
2018-12-12T07:13:03.764Z,99.90
2018-12-12T07:15:32.135Z,99.90
2018-12-12T07:18:00.473Z,99.90
2018-12-12T07:20:28.806Z,99.90
2018-12-12T07:22:57.319Z,99.90
2018-12-12T07:25:25.744Z,99.90
2018-12-12T07:27:54.075Z,99.90
2018-12-12T07:30:22.756Z,99.90
2018-12-12T07:32:51.213Z,99.90
2018-12-12T07:35:19.569Z,99.90
2018-12-12T07:37:48.280Z,99.90
2018-12-12T07:40:16.640Z,99.90
2018-12-12T07:42:45.104Z,99.90
2018-12-12T07:45:13.504Z,99.90
2018-12-12T07:47:41.814Z,99.90
2018-12-12T07:50:10.370Z,99.90
2018-12-12T07:52:38.718Z,99.90
2018-12-12T07:55:07.204Z,99.90
2018-12-12T07:57:35.626Z,99.90
2018-12-12T08:00:04.655Z,99.90
2018-12-12T08:02:33.052Z,99.90
2018-12-12T08:05:01.448Z,99.90
2018-12-12T08:07:29.849Z,99.90
2018-12-12T08:09:58.185Z,99.90
2018-12-12T08:12:26.544Z,99.90
2018-12-12T08:14:54.956Z,99.90
2018-12-12T08:17:23.342Z,99.90
2018-12-12T08:19:51.673Z,99.90
2018-12-12T08:22:20.075Z,99.90
2018-12-12T08:24:48.449Z,99.90
2018-12-12T08:27:16.809Z,99.90
2018-12-12T08:29:45.180Z,99.90
2018-12-12T08:32:13.511Z,99.90
2018-12-12T08:34:41.847Z,99.90
2018-12-12T08:37:10.229Z,99.90
2018-12-12T08:39:38.557Z,99.90
2018-12-12T08:42:06.967Z,99.90
2018-12-12T08:44:35.328Z,99.90
2018-12-12T08:47:03.647Z,99.90
2018-12-12T08:49:31.980Z,99.90
2018-12-12T08:52:00.477Z,99.90
2018-12-12T08:54:28.833Z,99.90
2018-12-12T08:56:57.528Z,99.90
2018-12-12T08:59:25.864Z,99.90
2018-12-12T09:01:54.325Z,99.90
2018-12-12T09:04:22.796Z,99.90
2018-12-12T09:06:51.254Z,99.90
2018-12-12T09:09:19.706Z,99.90
2018-12-12T09:11:48.064Z,99.90
2018-12-12T09:14:16.428Z,99.90
2018-12-12T09:16:44.811Z,99.90
2018-12-12T09:19:13.215Z,99.90
2018-12-12T09:21:41.581Z,99.90
2018-12-12T09:24:09.941Z,99.90
2018-12-12T09:26:38.295Z,99.90
2018-12-12T09:29:06.647Z,99.90
2018-12-12T09:31:35.010Z,99.90
2018-12-12T09:34:03.467Z,99.90
2018-12-12T09:36:31.805Z,99.90
2018-12-12T09:39:00.208Z,99.90
2018-12-12T09:41:28.536Z,99.90
2018-12-12T09:43:56.892Z,99.90
2018-12-12T09:46:25.224Z,99.90
2018-12-12T09:48:53.544Z,99.90
2018-12-12T09:51:21.969Z,99.90
2018-12-12T09:53:50.403Z,99.90
2018-12-12T09:56:18.860Z,99.90
2018-12-12T09:58:47.189Z,99.90
2018-12-12T10:01:15.535Z,99.90
2018-12-12T10:03:44.167Z,99.90
2018-12-12T10:06:12.538Z,99.90
2018-12-12T10:08:40.864Z,99.90
2018-12-12T10:11:09.219Z,99.90
2018-12-12T10:13:37.572Z,99.90
2018-12-12T10:16:06.002Z,99.90
2018-12-12T10:18:34.373Z,99.90
2018-12-12T10:21:02.668Z,99.90
2018-12-12T10:23:31.044Z,99.90
2018-12-12T10:25:59.499Z,99.90
2018-12-12T10:28:27.861Z,99.90
2018-12-12T10:30:56.176Z,99.90
2018-12-12T10:33:24.639Z,99.90
2018-12-12T10:35:53.017Z,99.90
2018-12-12T10:38:21.456Z,99.90
2018-12-12T10:40:49.787Z,99.90
2018-12-12T10:43:18.152Z,99.90
2018-12-12T10:45:46.645Z,99.90
2018-12-12T10:48:14.986Z,99.90
2018-12-12T10:50:43.371Z,99.90
2018-12-12T10:53:11.729Z,99.90
2018-12-12T10:55:40.139Z,99.90
2018-12-12T10:58:08.556Z,99.90
2018-12-12T11:00:40.062Z,99.90
2018-12-12T11:03:22.552Z,99.90
2018-12-12T11:05:50.864Z,99.90
2018-12-12T11:08:19.449Z,99.90
2018-12-12T11:10:47.844Z,99.90
2018-12-12T11:13:16.180Z,99.90
2018-12-12T11:15:44.548Z,99.90
2018-12-12T11:18:12.904Z,99.90
2018-12-12T11:20:41.250Z,99.90
2018-12-12T11:23:09.601Z,99.90
2018-12-12T11:25:37.926Z,99.90
2018-12-12T11:28:06.243Z,99.90
2018-12-12T11:30:34.601Z,99.90
2018-12-12T11:33:02.952Z,99.90
2018-12-12T11:35:31.370Z,99.90
2018-12-12T11:37:59.752Z,99.90
2018-12-12T11:40:28.127Z,99.90
2018-12-12T11:42:56.468Z,99.90
2018-12-12T11:45:24.843Z,99.90
2018-12-12T11:47:53.289Z,99.90
2018-12-12T11:50:21.744Z,99.90
2018-12-12T11:52:50.086Z,99.90
2018-12-12T11:55:18.516Z,99.90
2018-12-12T11:57:47.164Z,99.90
2018-12-12T12:00:15.479Z,99.90
2018-12-12T12:02:43.868Z,99.90
2018-12-12T12:05:12.196Z,99.90
2018-12-12T12:07:40.553Z,99.90
2018-12-12T12:10:10.391Z,99.90
2018-12-12T12:12:38.743Z,99.90
2018-12-12T12:15:07.932Z,99.90
2018-12-12T12:17:36.328Z,99.90
2018-12-12T12:20:05.202Z,99.90
2018-12-12T12:22:33.519Z,99.90
2018-12-12T12:25:01.903Z,99.90
2018-12-12T12:27:30.332Z,99.90
2018-12-12T12:29:58.721Z,99.90
2018-12-12T12:32:27.208Z,98.90
2018-12-12T12:34:56.387Z,99.00
2018-12-12T12:37:24.840Z,99.10
2018-12-12T12:39:53.209Z,98.30
2018-12-12T12:42:21.591Z,98.70
2018-12-12T12:44:49.938Z,99.90
2018-12-12T12:47:18.387Z,99.90
2018-12-12T12:49:46.846Z,99.90
2018-12-12T12:52:15.190Z,99.90
2018-12-12T12:54:43.631Z,99.90
2018-12-12T12:57:11.985Z,99.90
2018-12-12T12:59:40.377Z,99.90
2018-12-12T13:02:08.816Z,99.90
2018-12-12T13:04:37.195Z,99.40
2018-12-12T13:07:05.571Z,98.60
2018-12-12T13:09:33.931Z,99.30
2018-12-12T13:12:02.418Z,99.90
2018-12-12T13:14:31.049Z,99.90
2018-12-12T13:16:59.408Z,99.90
2018-12-12T13:19:27.768Z,99.90
2018-12-12T13:21:56.112Z,99.90
2018-12-12T13:24:24.514Z,99.90
2018-12-12T13:26:53.658Z,99.90
2018-12-12T13:29:22.370Z,99.90
2018-12-12T13:31:50.717Z,99.90
2018-12-12T13:34:19.038Z,99.90
2018-12-12T13:36:47.433Z,99.90
2018-12-12T13:39:15.837Z,99.90
2018-12-12T13:41:44.185Z,99.90
2018-12-12T13:44:12.517Z,99.90
2018-12-12T13:46:40.949Z,99.90
2018-12-12T13:49:09.382Z,99.90
2018-12-12T13:51:37.700Z,99.90
2018-12-12T13:54:06.112Z,99.90
2018-12-12T13:56:34.422Z,99.90
2018-12-12T13:59:02.891Z,99.90
2018-12-12T14:01:31.265Z,99.90
2018-12-12T14:03:59.631Z,99.90
2018-12-12T14:06:28.107Z,99.90
2018-12-12T14:08:56.461Z,99.90
2018-12-12T14:11:24.781Z,99.90
2018-12-12T14:13:53.156Z,99.90
2018-12-12T14:16:21.509Z,99.90
2018-12-12T14:18:49.899Z,99.90
2018-12-12T14:21:18.217Z,99.90
2018-12-12T14:23:46.576Z,99.90
2018-12-12T14:26:14.924Z,99.90
2018-12-12T14:28:43.316Z,99.90
2018-12-12T14:31:11.675Z,99.90
2018-12-12T14:33:40.070Z,99.90
2018-12-12T14:36:08.566Z,99.90
2018-12-12T14:38:36.917Z,99.90
2018-12-12T14:41:05.425Z,99.90
2018-12-12T14:43:33.836Z,99.90
2018-12-12T14:46:02.192Z,99.90
2018-12-12T14:48:31.236Z,99.90
2018-12-12T14:50:59.601Z,99.90
2018-12-12T14:53:27.963Z,99.90
2018-12-12T14:55:56.429Z,99.90
2018-12-12T14:58:24.838Z,99.90
2018-12-12T15:00:53.193Z,99.90
2018-12-12T15:03:21.540Z,99.90
2018-12-12T15:05:49.860Z,99.90
2018-12-12T15:08:18.249Z,99.90
2018-12-12T15:10:46.745Z,99.90
2018-12-12T15:13:15.089Z,99.90
2018-12-12T15:15:43.440Z,99.90
2018-12-12T15:18:11.779Z,99.90
2018-12-12T15:20:40.120Z,99.90
2018-12-12T15:23:08.492Z,99.90
2018-12-12T15:25:36.812Z,99.90
2018-12-12T15:28:05.173Z,99.90
2018-12-12T15:30:33.505Z,99.90
2018-12-12T15:33:01.884Z,99.90
2018-12-12T15:35:30.241Z,99.90
2018-12-12T15:37:58.576Z,99.90
2018-12-12T15:40:26.938Z,99.90
2018-12-12T15:42:55.353Z,99.90
2018-12-12T15:45:23.760Z,99.90
2018-12-12T15:47:52.136Z,99.90
2018-12-12T15:50:20.507Z,99.90
2018-12-12T15:52:48.852Z,99.90
2018-12-12T15:55:17.288Z,99.90
2018-12-12T15:57:45.710Z,99.90
2018-12-12T16:00:15.762Z,99.90
2018-12-12T16:02:44.493Z,99.90
2018-12-12T16:05:13.003Z,99.90
2018-12-12T16:07:41.454Z,99.90
2018-12-12T16:10:09.859Z,99.90
2018-12-12T16:12:38.170Z,99.90
2018-12-12T16:15:06.627Z,99.90
2018-12-12T16:17:35.080Z,99.90
2018-12-12T16:20:04.121Z,99.90
2018-12-12T16:22:32.488Z,99.90
2018-12-12T16:25:01.152Z,99.90
2018-12-12T16:27:29.716Z,99.90
2018-12-12T16:29:58.107Z,99.90
2018-12-12T16:32:27.111Z,99.90
2018-12-12T16:34:55.914Z,99.90
2018-12-12T16:37:24.416Z,99.90
2018-12-12T16:39:52.863Z,99.90
2018-12-12T16:42:21.264Z,99.90
2018-12-12T16:44:49.662Z,99.90
2018-12-12T16:47:18.037Z,99.90
2018-12-12T16:49:46.640Z,99.90
2018-12-12T16:52:15.600Z,99.90
2018-12-12T16:54:44.148Z,99.90
2018-12-12T16:57:12.563Z,99.90
2018-12-12T16:59:41.045Z,99.90
2018-12-12T17:02:10.003Z,99.90
2018-12-12T17:04:38.377Z,99.90
2018-12-12T17:07:06.840Z,99.90
2018-12-12T17:09:35.172Z,99.90
2018-12-12T17:12:03.517Z,99.90
2018-12-12T17:14:31.921Z,99.90
2018-12-12T17:17:00.266Z,99.90
2018-12-12T17:19:28.672Z,99.90
2018-12-12T17:21:57.068Z,99.90
2018-12-12T17:24:25.457Z,99.90
2018-12-12T17:26:53.819Z,99.90
2018-12-12T17:29:22.121Z,99.90
2018-12-12T17:31:50.454Z,99.90
2018-12-12T17:34:18.822Z,99.90
2018-12-12T17:36:47.295Z,99.90
2018-12-12T17:39:15.657Z,99.90
2018-12-12T17:41:44.094Z,99.90
2018-12-12T17:44:12.476Z,99.90
2018-12-12T17:46:40.912Z,99.90
2018-12-12T17:49:09.336Z,99.90
2018-12-12T17:51:37.709Z,99.90
2018-12-12T17:54:06.136Z,99.90
2018-12-12T17:56:34.499Z,99.90
2018-12-12T17:59:02.852Z,99.90
2018-12-12T18:01:31.182Z,99.90
2018-12-12T18:03:59.715Z,99.90
2018-12-12T18:06:28.133Z,99.90
2018-12-12T18:08:56.600Z,99.90
2018-12-12T18:11:24.976Z,99.90
2018-12-12T18:13:53.404Z,99.90
2018-12-12T18:16:21.787Z,99.90
2018-12-12T18:18:50.269Z,99.90
2018-12-12T18:21:18.637Z,99.90
2018-12-12T18:23:47.031Z,99.90
2018-12-12T18:26:15.465Z,99.90
2018-12-12T18:28:43.840Z,99.90
2018-12-12T18:31:12.319Z,99.90
2018-12-12T18:33:40.698Z,99.90
2018-12-12T18:36:09.161Z,99.90
2018-12-12T18:38:37.600Z,99.90
2018-12-12T18:41:06.029Z,99.90
2018-12-12T18:43:34.410Z,99.90
2018-12-12T18:46:02.784Z,99.90
2018-12-12T18:48:31.185Z,99.90
2018-12-12T18:50:59.560Z,99.90
2018-12-12T18:53:27.939Z,99.90
2018-12-12T18:55:56.393Z,99.90
2018-12-12T18:58:24.740Z,99.90
2018-12-12T19:00:53.099Z,99.90
2018-12-12T19:03:21.531Z,99.90
2018-12-12T19:05:49.905Z,99.90
2018-12-12T19:08:18.217Z,99.90
2018-12-12T19:10:46.598Z,99.90
2018-12-12T19:13:15.025Z,99.90
2018-12-12T19:15:43.339Z,99.90
2018-12-12T19:18:11.851Z,99.90
2018-12-12T19:20:40.186Z,99.90
2018-12-12T19:23:08.597Z,99.90
2018-12-12T19:25:37.046Z,99.90
2018-12-12T19:28:05.534Z,99.90
2018-12-12T19:30:33.912Z,99.90
2018-12-12T19:33:02.357Z,99.90
2018-12-12T19:35:34.741Z,99.90
2018-12-12T19:38:01.101Z,99.90
2018-12-12T19:40:29.478Z,99.90
2018-12-12T19:42:57.829Z,99.90
2018-12-12T19:45:26.218Z,99.90
2018-12-12T19:47:54.669Z,99.90
2018-12-12T19:50:23.271Z,99.90
2018-12-12T19:52:51.841Z,99.90
2018-12-12T19:55:20.239Z,99.90
2018-12-12T19:57:48.853Z,99.90
2018-12-12T20:00:17.267Z,99.90
2018-12-12T20:02:45.652Z,99.90
2018-12-12T20:05:14.046Z,99.90
2018-12-12T20:07:42.479Z,99.90
2018-12-12T20:10:10.905Z,99.90
2018-12-12T20:12:39.296Z,99.90
2018-12-12T20:15:10.119Z,99.90
2018-12-12T20:17:38.480Z,99.90
2018-12-12T20:20:07.004Z,99.90
2018-12-12T20:22:35.379Z,99.90
2018-12-12T20:25:04.092Z,99.90
2018-12-12T20:27:32.465Z,99.90
2018-12-12T20:30:00.877Z,99.90
2018-12-12T20:32:29.317Z,99.90
2018-12-12T20:34:57.692Z,99.90
2018-12-12T20:37:26.091Z,99.90
2018-12-12T20:39:54.491Z,99.90
2018-12-12T20:42:22.892Z,99.90
2018-12-12T20:44:51.264Z,99.90
2018-12-12T20:47:19.792Z,99.90
2018-12-12T20:49:48.146Z,99.90
2018-12-12T20:52:16.533Z,99.90
2018-12-12T20:54:44.929Z,99.90
2018-12-12T20:57:13.383Z,99.90
2018-12-12T20:59:45.762Z,99.90
2018-12-12T21:02:12.297Z,99.90
2018-12-12T21:04:40.667Z,99.90
2018-12-12T21:07:09.068Z,99.90
2018-12-12T21:09:37.409Z,99.90
2018-12-12T21:12:05.756Z,99.90
2018-12-12T21:14:34.236Z,99.90
2018-12-12T21:17:02.589Z,99.90
2018-12-12T21:19:30.957Z,99.90
2018-12-12T21:21:59.376Z,99.90
2018-12-12T21:24:27.840Z,99.90
2018-12-12T21:26:56.201Z,99.90
2018-12-12T21:29:24.620Z,99.90
2018-12-12T21:31:53.277Z,99.90
2018-12-12T21:34:21.651Z,99.90
2018-12-12T21:36:50.005Z,99.90
2018-12-12T21:39:18.386Z,99.90
2018-12-12T21:41:46.946Z,99.90
2018-12-12T21:44:15.335Z,99.90
2018-12-12T21:46:43.760Z,99.90
2018-12-12T21:49:12.140Z,99.90
2018-12-12T21:51:40.571Z,99.90
2018-12-12T21:54:08.984Z,99.90
2018-12-12T21:56:37.433Z,99.90
2018-12-12T21:59:05.797Z,99.90
2018-12-12T22:01:34.198Z,99.90
2018-12-12T22:04:02.605Z,99.90
2018-12-12T22:06:31.063Z,99.90
2018-12-12T22:08:59.438Z,99.90
2018-12-12T22:11:27.936Z,99.90
2018-12-12T22:13:56.467Z,99.90
2018-12-12T22:16:24.828Z,99.90
2018-12-12T22:18:53.219Z,99.90
2018-12-12T22:21:21.590Z,99.90
2018-12-12T22:23:50.242Z,99.90
2018-12-12T22:26:18.634Z,99.90
2018-12-12T22:28:47.049Z,99.90
2018-12-12T22:31:15.418Z,99.90
2018-12-12T22:33:43.777Z,99.90
2018-12-12T22:36:14.262Z,99.90
2018-12-12T22:38:42.553Z,99.90
2018-12-12T22:41:10.934Z,99.90
2018-12-12T22:43:39.329Z,99.90
2018-12-12T22:46:07.882Z,99.90
2018-12-12T22:48:36.273Z,99.90
2018-12-12T22:51:04.791Z,99.90
2018-12-12T22:53:33.265Z,99.90
2018-12-12T22:56:01.620Z,99.90
2018-12-12T22:58:30.018Z,99.90
2018-12-12T23:01:07.410Z,99.90
2018-12-12T23:03:36.117Z,99.90
2018-12-12T23:06:04.629Z,99.90
2018-12-12T23:08:33.044Z,99.90
2018-12-12T23:11:01.468Z,99.90
2018-12-12T23:13:29.866Z,99.90
2018-12-12T23:15:58.244Z,99.90
2018-12-12T23:18:26.623Z,99.90
2018-12-12T23:20:55.020Z,99.90
2018-12-12T23:23:23.449Z,99.90
2018-12-12T23:25:51.833Z,99.90
2018-12-12T23:28:20.213Z,99.90
2018-12-12T23:30:48.592Z,99.90
2018-12-12T23:33:16.941Z,99.90
2018-12-12T23:35:45.295Z,99.90
2018-12-12T23:38:13.632Z,99.90
2018-12-12T23:40:42.022Z,99.90
2018-12-12T23:43:10.398Z,99.90
2018-12-12T23:45:38.896Z,99.90
2018-12-12T23:48:07.272Z,99.90
2018-12-12T23:50:35.606Z,99.90
2018-12-12T23:53:04.151Z,99.90
2018-12-12T23:55:32.469Z,99.90
2018-12-12T23:58:00.848Z,99.90
